Summit Station, Ohio
Current Conditions -  °F | °C
As of 3:51 AM on Saturday 22 Nov 2014 (Local Time) from KCMH Reporting Station
Overcast Overcast  
Wind Chill: 21°   Ceiling: 4600
Heat Index: 26°   Visibility: 10mi
Dew Point: 10°   Wind: 5mph
Humidity: 51%   Direction: 160°SSE
Pressure: 30.34"   Gusts: NA
Location:  40°N, 82.75°W
Report Text: KCMH 220851Z 16004KT 10SM OVC046 M03/M12 A3034 RMK AO2 SLP284 T10331122 57016 $
Loading
Personal Weather Stations






























Interactive Weather Map New forecast layout! Learn more

10-Day Weather Forecast

Advertisements
Track Severe Weather on mobile